This demonstration page uses our WeatherBlox Daily Observations layout. Learn more.

36.17497, -115.13722

Hourly Observations for July 21, 2016

Temp ( °F °C ) Dew Point ( °F °C ) Humidity (%) Winds ( mph kmh ) Pressure ( in mb ) Visibility ( mi km ) Precip ( " mm )
12:53 am 00:53 Clear 90 32.2 39 3.9 17 17 N 6 9 29.77 1008 10 16.09344 0 0
1:53 am 01:53 Clear 89 31.7 43 6.1 20 20 NE 3 6 29.8 1009 10 16.09344 0 0
2:53 am 02:53 Clear 86 30 48 8.9 27 27 E 5 7 29.8 1009 10 16.09344 0 0
3:53 am 03:53 Clear 85 29.4 48 8.9 28 28 Calm 29.8 1009 10 16.09344 0 0
4:53 am 04:53 Clear 85 29.4 47 8.3 27 27 E 5 7 29.83 1010 10 16.09344 0 0
5:53 am 05:53 Sunny 83 28.3 50 10 32 32 NNW 5 7 29.83 1010 10 16.09344 0 0
6:53 am 06:53 Sunny 86 30 53 11.7 32 32 NNW 3 6 29.85 1011 10 16.09344 0 0
7:53 am 07:53 Sunny 91 32.8 51 10.6 26 26 E 5 7 29.83 1010 10 16.09344 0 0
8:53 am 08:53 Sunny 93 33.9 50 10 23 23 ESE 6 9 29.85 1011 10 16.09344 0 0
9:53 am 09:53 Sunny 96 35.6 44 6.7 17 17 ESE 10 17 29.85 1011 10 16.09344 0 0
10:53 am 10:53 Sunny 98 36.7 40 4.4 13 13 S 5 7 29.85 1011 10 16.09344 0 0
11:53 am 11:53 Sunny 100 37.8 46 7.8 16 16 N 5 7 29.8 1009 10 16.09344 0 0
12:53 pm 12:53 Sunny 103 39.4 44 6.7 13 13 undefined N/A 29.77 1008 10 16.09344 0 0
1:53 pm 13:53 Sunny 105 40.6 44 6.7 13 13 Calm 29.77 1008 10 16.09344 0 0
2:53 pm 14:53 Sunny 108 42.2 43 6.1 11 11 S 14 22 29.68 1005 10 16.09344 0 0
3:53 pm 15:53 Sunny 106 41.1 43 6.1 12 12 N 5 7 29.68 1005 10 16.09344 0 0
4:53 pm 16:53 Sunny 107 41.7 44 6.7 12 12 S 8 13 29.65 1004 10 16.09344 0 0
5:53 pm 17:53 Sunny 107 41.7 46 7.8 13 13 ESE 5 7 29.62 1003 10 16.09344 0 0
6:53 pm 18:53 Sunny 107 41.7 39 3.9 10 10 WSW 9 15 29.62 1003 10 16.09344 0 0
7:53 pm 19:53 Sunny 104 40 38 3.3 10 10 W 9 15 29.65 1004 10 16.09344 0 0
9:53 pm 21:53 Clear 100 37.8 36 2.2 11 11 WSW 7 11 29.71 1006 10 16.09344 0 0
10:53 pm 22:53 Clear 97 36.1 37 2.8 12 12 Calm 29.71 1006 10 16.09344 0 0
11:53 pm 23:53 Clear 95 35 36 2.2 13 13 N 3 6 29.74 1007 10 16.09344 0 0

Powered by AerisWeather